createdAt,value
2017-04-16T00:00:47.011Z,87.00
2017-04-16T00:01:44.482Z,87.40
2017-04-16T00:02:41.949Z,87.30
2017-04-16T00:03:39.354Z,87.30
2017-04-16T00:04:36.757Z,87.20
2017-04-16T00:05:34.205Z,87.40
2017-04-16T00:06:32.004Z,87.40
2017-04-16T00:07:29.416Z,87.40
2017-04-16T00:08:26.853Z,87.60
2017-04-16T00:09:24.248Z,87.60
2017-04-16T00:10:21.695Z,87.70
2017-04-16T00:11:19.100Z,87.70
2017-04-16T00:12:16.777Z,87.60
2017-04-16T00:13:14.210Z,88.10
2017-04-16T00:14:12.496Z,87.40
2017-04-16T00:15:09.925Z,87.30
2017-04-16T00:16:08.151Z,87.40
2017-04-16T00:17:05.574Z,87.30
2017-04-16T00:18:03.005Z,87.40
2017-04-16T00:19:00.421Z,87.50
2017-04-16T00:19:57.873Z,87.80
2017-04-16T00:20:55.333Z,87.80
2017-04-16T00:21:52.772Z,87.80
2017-04-16T00:22:50.179Z,87.80
2017-04-16T00:23:47.607Z,87.90
2017-04-16T00:24:45.085Z,88.00
2017-04-16T00:25:42.631Z,88.00
2017-04-16T00:26:40.060Z,87.90
2017-04-16T00:27:37.480Z,87.80
2017-04-16T00:28:34.897Z,87.90
2017-04-16T00:29:32.563Z,87.90
2017-04-16T00:30:30.735Z,87.70
2017-04-16T00:31:28.209Z,87.80
2017-04-16T00:32:25.704Z,87.80
2017-04-16T00:33:23.116Z,87.80
2017-04-16T00:34:20.572Z,87.80
2017-04-16T00:35:18.017Z,87.60
2017-04-16T00:36:15.435Z,87.60
2017-04-16T00:37:12.873Z,87.60
2017-04-16T00:38:10.293Z,87.70
2017-04-16T00:39:08.007Z,87.60
2017-04-16T00:40:05.408Z,87.50
2017-04-16T00:41:02.815Z,87.30
2017-04-16T00:42:00.973Z,87.30
2017-04-16T00:42:58.408Z,87.10
2017-04-16T00:43:55.834Z,87.10
2017-04-16T00:44:53.261Z,87.20
2017-04-16T00:45:50.684Z,87.20
2017-04-16T00:46:48.105Z,87.10
2017-04-16T00:47:45.529Z,87.20
2017-04-16T00:48:42.965Z,87.20
2017-04-16T00:49:40.375Z,87.40
2017-04-16T00:50:37.801Z,87.20
2017-04-16T00:51:35.210Z,87.20
2017-04-16T00:52:32.615Z,87.10
2017-04-16T00:53:30.021Z,87.00
2017-04-16T00:54:28.201Z,87.10
2017-04-16T00:55:25.614Z,87.20
2017-04-16T00:56:23.036Z,87.10
2017-04-16T00:57:20.501Z,86.80
2017-04-16T00:58:17.923Z,87.20
2017-04-16T00:59:15.388Z,87.10
2017-04-16T01:00:13.119Z,87.10
2017-04-16T01:01:15.377Z,87.00
2017-04-16T01:02:18.688Z,87.00
2017-04-16T01:03:16.099Z,86.90
2017-04-16T01:04:13.503Z,87.00
2017-04-16T01:05:10.920Z,87.00
2017-04-16T01:06:08.355Z,86.90
2017-04-16T01:07:06.497Z,86.80
2017-04-16T01:08:03.914Z,86.70
2017-04-16T01:09:01.333Z,86.80
2017-04-16T01:09:58.747Z,86.50
2017-04-16T01:10:56.157Z,86.50
2017-04-16T01:11:53.584Z,86.80
2017-04-16T01:12:51.009Z,86.50
2017-04-16T01:13:48.413Z,86.30
2017-04-16T01:14:45.883Z,86.30
2017-04-16T01:15:43.298Z,86.30
2017-04-16T01:16:40.703Z,86.20
2017-04-16T01:17:38.181Z,86.20
2017-04-16T01:18:35.592Z,86.50
2017-04-16T01:19:33.005Z,86.30
2017-04-16T01:20:30.427Z,86.20
2017-04-16T01:21:28.581Z,86.30
2017-04-16T01:22:25.980Z,86.20
2017-04-16T01:23:24.171Z,86.50
2017-04-16T01:24:21.621Z,86.50
2017-04-16T01:25:19.345Z,86.60
2017-04-16T01:26:17.709Z,86.50
2017-04-16T01:27:15.136Z,86.70
2017-04-16T01:28:12.648Z,86.70
2017-04-16T01:29:10.096Z,86.80
2017-04-16T01:30:07.545Z,86.80
2017-04-16T01:31:04.957Z,86.90
2017-04-16T01:32:02.375Z,86.90
2017-04-16T01:32:59.798Z,87.20
2017-04-16T01:33:57.220Z,87.20
2017-04-16T01:34:54.677Z,87.10
2017-04-16T01:35:52.083Z,87.20
2017-04-16T01:36:49.744Z,87.20
2017-04-16T01:37:47.193Z,87.30
2017-04-16T01:38:44.633Z,87.30
2017-04-16T01:39:42.050Z,87.30
2017-04-16T01:40:39.489Z,87.20
2017-04-16T01:41:36.900Z,87.20
2017-04-16T01:42:34.301Z,87.30
2017-04-16T01:43:31.719Z,87.20
2017-04-16T01:44:29.180Z,87.40
2017-04-16T01:45:26.598Z,87.20
2017-04-16T01:46:24.137Z,87.10
2017-04-16T01:47:21.541Z,87.20
2017-04-16T01:48:19.192Z,87.00
2017-04-16T01:49:16.602Z,87.00
2017-04-16T01:50:14.056Z,86.80
2017-04-16T01:51:11.481Z,86.90
2017-04-16T01:52:08.920Z,86.80
2017-04-16T01:53:06.333Z,86.80
2017-04-16T01:54:03.750Z,86.80
2017-04-16T01:55:01.913Z,87.00
2017-04-16T01:55:59.326Z,86.90
2017-04-16T01:56:56.745Z,86.80
2017-04-16T01:57:54.941Z,86.60
2017-04-16T01:58:52.350Z,86.90
2017-04-16T01:59:49.996Z,86.70
2017-04-16T02:00:47.442Z,86.50
2017-04-16T02:01:44.858Z,86.40
2017-04-16T02:02:42.291Z,86.30
2017-04-16T02:03:39.737Z,86.20
2017-04-16T02:04:37.162Z,86.40
2017-04-16T02:05:34.895Z,86.40
2017-04-16T02:06:33.054Z,86.20
2017-04-16T02:07:33.324Z,86.10
2017-04-16T02:08:31.475Z,86.50
2017-04-16T02:09:29.173Z,85.90
2017-04-16T02:10:26.702Z,85.80
2017-04-16T02:11:24.857Z,85.70
2017-04-16T02:12:22.272Z,85.90
2017-04-16T02:13:19.687Z,85.40
2017-04-16T02:14:17.117Z,85.20
2017-04-16T02:15:14.857Z,85.30
2017-04-16T02:16:12.271Z,85.50
2017-04-16T02:17:09.705Z,85.40
2017-04-16T02:18:07.125Z,85.10
2017-04-16T02:19:04.622Z,85.40
2017-04-16T02:20:02.025Z,85.40
2017-04-16T02:21:00.198Z,85.90
2017-04-16T02:21:57.622Z,85.80
2017-04-16T02:22:55.046Z,85.00
2017-04-16T02:23:52.488Z,85.10
2017-04-16T02:24:49.889Z,84.70
2017-04-16T02:25:47.305Z,84.90
2017-04-16T02:26:45.153Z,84.60
2017-04-16T02:27:42.585Z,84.50
2017-04-16T02:28:40.037Z,84.00
2017-04-16T02:29:37.466Z,83.70
2017-04-16T02:30:34.865Z,83.60
2017-04-16T02:31:33.037Z,83.60
2017-04-16T02:32:30.477Z,83.50
2017-04-16T02:33:27.880Z,83.40
2017-04-16T02:34:25.302Z,83.30
2017-04-16T02:35:22.719Z,83.90
2017-04-16T02:36:20.865Z,83.60
2017-04-16T02:37:19.077Z,83.60
2017-04-16T02:38:16.527Z,83.40
2017-04-16T02:39:13.936Z,83.20
2017-04-16T02:40:11.386Z,83.40
2017-04-16T02:41:09.557Z,84.00
2017-04-16T02:42:07.696Z,83.50
2017-04-16T02:43:05.105Z,84.40
2017-04-16T02:44:03.575Z,84.10
2017-04-16T02:45:01.050Z,84.60
2017-04-16T02:45:58.572Z,84.90
2017-04-16T02:46:55.991Z,84.90
2017-04-16T02:47:53.473Z,84.50
2017-04-16T02:48:50.894Z,84.60
2017-04-16T02:49:48.381Z,85.20
2017-04-16T02:50:45.796Z,85.00
2017-04-16T02:51:43.208Z,84.80
2017-04-16T02:52:40.642Z,84.90
2017-04-16T02:53:38.077Z,85.40
2017-04-16T02:54:35.483Z,85.80
2017-04-16T02:55:32.937Z,85.80
2017-04-16T02:56:30.408Z,85.70
2017-04-16T02:57:27.825Z,86.40
2017-04-16T02:58:25.249Z,86.00
2017-04-16T02:59:22.665Z,86.20
2017-04-16T03:00:20.080Z,85.90
2017-04-16T03:01:17.546Z,86.00
2017-04-16T03:02:14.957Z,85.70
2017-04-16T03:03:12.442Z,85.10
2017-04-16T03:04:09.852Z,85.10
2017-04-16T03:05:07.261Z,85.10
2017-04-16T03:06:04.705Z,85.00
2017-04-16T03:07:02.149Z,85.00
2017-04-16T03:07:59.565Z,85.00
2017-04-16T03:08:56.977Z,84.60
2017-04-16T03:09:54.380Z,84.90
2017-04-16T03:10:51.827Z,84.80
2017-04-16T03:11:49.237Z,85.20
2017-04-16T03:12:46.695Z,85.60
2017-04-16T03:13:44.117Z,86.30
2017-04-16T03:14:41.568Z,86.10
2017-04-16T03:15:39.065Z,86.80
2017-04-16T03:16:36.459Z,87.70
2017-04-16T03:17:33.878Z,88.50
2017-04-16T03:18:32.090Z,88.50
2017-04-16T03:19:29.533Z,90.00
2017-04-16T03:20:26.944Z,89.40
2017-04-16T03:21:25.110Z,89.80
2017-04-16T03:22:22.573Z,89.80
2017-04-16T03:23:19.972Z,90.10
2017-04-16T03:24:17.413Z,90.10
2017-04-16T03:25:15.152Z,90.30
2017-04-16T03:26:12.574Z,90.30
2017-04-16T03:27:09.991Z,90.30
2017-04-16T03:28:07.412Z,90.50
2017-04-16T03:29:04.834Z,90.50
2017-04-16T03:30:03.437Z,90.50
2017-04-16T03:31:00.885Z,90.50
2017-04-16T03:31:58.318Z,90.30
2017-04-16T03:32:55.755Z,90.30
2017-04-16T03:33:53.171Z,90.20
2017-04-16T03:34:50.612Z,90.30
2017-04-16T03:35:48.084Z,90.10
2017-04-16T03:36:45.505Z,89.30
2017-04-16T03:37:42.918Z,88.90
2017-04-16T03:38:40.333Z,88.80
2017-04-16T03:39:37.748Z,89.30
2017-04-16T03:40:34.432Z,89.30
2017-04-16T03:41:31.873Z,90.00
2017-04-16T03:42:29.294Z,90.00
2017-04-16T03:43:26.716Z,90.20
2017-04-16T03:44:24.249Z,90.20
2017-04-16T03:45:22.412Z,90.20
2017-04-16T03:46:19.817Z,90.40
2017-04-16T03:47:17.284Z,90.30
2017-04-16T03:48:14.695Z,90.30
2017-04-16T03:49:12.127Z,90.30
2017-04-16T03:50:09.553Z,90.30
2017-04-16T03:51:06.980Z,90.30
2017-04-16T03:52:05.467Z,90.40
2017-04-16T03:53:02.926Z,90.50
2017-04-16T03:54:00.342Z,90.40
2017-04-16T03:54:57.762Z,90.40
2017-04-16T03:55:55.193Z,90.40
2017-04-16T03:56:52.612Z,90.40
2017-04-16T03:57:50.021Z,90.30
2017-04-16T03:58:47.467Z,90.20
2017-04-16T03:59:44.877Z,90.20
2017-04-16T04:00:42.292Z,90.00
2017-04-16T04:01:39.696Z,89.90
2017-04-16T04:02:37.132Z,89.60
2017-04-16T04:03:34.541Z,89.80
2017-04-16T04:04:31.987Z,89.20
2017-04-16T04:05:33.213Z,88.90
2017-04-16T04:06:30.624Z,89.00
2017-04-16T04:07:28.039Z,89.20
2017-04-16T04:08:25.457Z,89.40
2017-04-16T04:09:22.873Z,89.30
2017-04-16T04:10:20.321Z,90.00
2017-04-16T04:11:17.745Z,89.50
2017-04-16T04:12:15.175Z,89.30
2017-04-16T04:13:12.884Z,89.30
2017-04-16T04:14:11.036Z,89.60
2017-04-16T04:15:08.455Z,89.60
2017-04-16T04:16:05.929Z,89.80
2017-04-16T04:17:03.349Z,89.70
2017-04-16T04:18:00.759Z,89.70
2017-04-16T04:18:58.185Z,89.90
2017-04-16T04:19:55.601Z,89.90
2017-04-16T04:20:53.019Z,90.00
2017-04-16T04:21:50.477Z,90.10
2017-04-16T04:22:47.921Z,90.30
2017-04-16T04:23:45.332Z,90.60
2017-04-16T04:24:42.765Z,90.40
2017-04-16T04:25:40.912Z,90.30
2017-04-16T04:26:38.356Z,90.30
2017-04-16T04:27:36.234Z,90.20
2017-04-16T04:28:33.634Z,90.30
2017-04-16T04:29:31.040Z,90.50
2017-04-16T04:30:28.453Z,90.20
2017-04-16T04:31:25.877Z,90.20
2017-04-16T04:32:23.284Z,90.30
2017-04-16T04:33:20.727Z,90.10
2017-04-16T04:34:18.200Z,90.30
2017-04-16T04:35:15.629Z,90.40
2017-04-16T04:36:13.356Z,90.30
2017-04-16T04:37:11.507Z,90.40
2017-04-16T04:38:08.925Z,90.40
2017-04-16T04:39:07.328Z,90.30
2017-04-16T04:40:04.837Z,90.40
2017-04-16T04:41:02.240Z,90.40
2017-04-16T04:42:00.399Z,90.30
2017-04-16T04:42:58.545Z,90.40
2017-04-16T04:43:55.965Z,90.50
2017-04-16T04:44:53.409Z,90.50
2017-04-16T04:45:50.827Z,90.50
2017-04-16T04:46:48.253Z,90.50
2017-04-16T04:47:45.661Z,90.50
2017-04-16T04:48:43.102Z,90.40
2017-04-16T04:49:40.525Z,90.30
2017-04-16T04:50:37.982Z,90.40
2017-04-16T04:51:35.424Z,90.40
2017-04-16T04:52:32.827Z,90.50
2017-04-16T04:53:30.982Z,90.50
2017-04-16T04:54:28.381Z,90.50
2017-04-16T04:55:25.801Z,90.40
2017-04-16T04:56:23.252Z,90.60
2017-04-16T04:57:20.674Z,90.40
2017-04-16T04:58:18.072Z,90.50
2017-04-16T04:59:15.489Z,90.40
2017-04-16T05:00:12.897Z,90.40
2017-04-16T05:01:10.306Z,90.30
2017-04-16T05:02:07.739Z,90.30
2017-04-16T05:03:05.164Z,90.40
2017-04-16T05:04:02.587Z,90.30
2017-04-16T05:05:00.007Z,90.30
2017-04-16T05:05:58.181Z,90.50
2017-04-16T05:06:55.592Z,90.40
2017-04-16T05:07:53.409Z,90.40
2017-04-16T05:08:50.830Z,90.30
2017-04-16T05:09:48.234Z,90.30
2017-04-16T05:10:45.671Z,90.20
2017-04-16T05:11:43.082Z,90.20
2017-04-16T05:12:40.536Z,90.30
2017-04-16T05:13:37.977Z,90.30
2017-04-16T05:14:35.428Z,90.40
2017-04-16T05:15:32.835Z,90.50
2017-04-16T05:16:30.262Z,90.50
2017-04-16T05:17:27.669Z,90.50
2017-04-16T05:18:25.098Z,90.50
2017-04-16T05:19:22.541Z,90.60
2017-04-16T05:20:19.950Z,90.60
2017-04-16T05:21:17.485Z,90.70
2017-04-16T05:22:14.161Z,90.70
2017-04-16T05:23:11.573Z,90.80
2017-04-16T05:24:08.984Z,90.60
2017-04-16T05:25:06.426Z,90.20
2017-04-16T05:26:03.831Z,89.30
2017-04-16T05:27:01.255Z,87.40
2017-04-16T05:27:59.422Z,86.40
2017-04-16T05:28:56.862Z,85.70
2017-04-16T05:29:54.283Z,85.70
2017-04-16T05:30:51.733Z,84.90
2017-04-16T05:31:49.162Z,84.50
2017-04-16T05:32:46.589Z,84.00
2017-04-16T05:33:43.998Z,83.10
2017-04-16T05:34:41.424Z,81.90
2017-04-16T05:35:39.852Z,80.90
2017-04-16T05:36:37.287Z,81.00
2017-04-16T05:37:34.706Z,79.80
2017-04-16T05:38:32.339Z,77.20
2017-04-16T05:39:30.484Z,75.80
2017-04-16T05:40:27.900Z,75.20
2017-04-16T05:41:25.316Z,74.20
2017-04-16T05:42:22.763Z,74.40
2017-04-16T05:43:20.191Z,74.60
2017-04-16T05:44:18.372Z,73.00
2017-04-16T05:45:15.809Z,71.60
2017-04-16T05:46:13.969Z,71.20
2017-04-16T05:47:11.461Z,70.80
2017-04-16T05:48:08.906Z,71.50
2017-04-16T05:49:06.314Z,69.50
2017-04-16T05:50:04.480Z,69.50
2017-04-16T05:51:01.909Z,70.10
2017-04-16T05:51:59.329Z,70.00
2017-04-16T05:52:56.751Z,69.10
2017-04-16T05:53:54.180Z,69.20
2017-04-16T05:54:51.587Z,69.60
2017-04-16T05:55:49.268Z,68.80
2017-04-16T05:56:47.404Z,68.90
2017-04-16T05:57:44.804Z,68.80
2017-04-16T05:58:42.204Z,66.80
2017-04-16T05:59:39.913Z,65.60
2017-04-16T06:00:37.328Z,67.70
2017-04-16T06:01:34.724Z,64.80
2017-04-16T06:02:32.141Z,65.50
2017-04-16T06:03:29.545Z,63.80
2017-04-16T06:04:26.955Z,63.50
2017-04-16T06:05:24.380Z,62.60
2017-04-16T06:06:21.790Z,61.60
2017-04-16T06:07:19.201Z,62.20
2017-04-16T06:08:17.348Z,62.00
2017-04-16T06:09:14.825Z,62.30
2017-04-16T06:10:12.232Z,64.00
2017-04-16T06:11:09.686Z,61.60
2017-04-16T06:12:07.217Z,62.20
2017-04-16T06:13:04.645Z,62.20
2017-04-16T06:14:02.825Z,62.30
2017-04-16T06:15:00.247Z,61.30
2017-04-16T06:15:57.785Z,61.70
2017-04-16T06:16:55.253Z,61.20
2017-04-16T06:17:52.692Z,60.70
2017-04-16T06:18:50.190Z,61.20
2017-04-16T06:19:47.601Z,61.30
2017-04-16T06:20:45.084Z,60.30
2017-04-16T06:21:42.557Z,60.80
2017-04-16T06:22:39.329Z,60.70
2017-04-16T06:23:43.565Z,60.90
2017-04-16T06:24:40.968Z,60.30
2017-04-16T06:25:38.465Z,60.40
2017-04-16T06:26:35.917Z,61.10
2017-04-16T06:27:33.336Z,62.60
2017-04-16T06:28:30.785Z,62.70
2017-04-16T06:29:28.206Z,61.30
2017-04-16T06:30:26.586Z,59.60
2017-04-16T06:31:24.028Z,60.90
2017-04-16T06:32:21.434Z,61.00
2017-04-16T06:33:18.865Z,60.30
2017-04-16T06:34:16.300Z,59.20
2017-04-16T06:35:14.126Z,59.20
2017-04-16T06:36:11.656Z,58.40
2017-04-16T06:37:09.069Z,58.90
2017-04-16T06:38:06.481Z,58.60
2017-04-16T06:39:04.038Z,57.50
2017-04-16T06:40:01.694Z,56.50
2017-04-16T06:40:59.117Z,55.40
2017-04-16T06:41:57.310Z,54.30
2017-04-16T06:42:54.715Z,55.20
2017-04-16T06:43:52.132Z,55.40
2017-04-16T06:44:49.558Z,56.00
2017-04-16T06:45:47.084Z,55.30
2017-04-16T06:46:44.493Z,55.30
2017-04-16T06:47:41.925Z,55.30
2017-04-16T06:48:39.325Z,55.60
2017-04-16T06:49:36.742Z,55.80
2017-04-16T06:50:34.160Z,57.10
2017-04-16T06:51:31.667Z,54.90
2017-04-16T06:52:29.103Z,54.00
2017-04-16T06:53:26.557Z,54.10
2017-04-16T06:54:24.018Z,55.60
2017-04-16T06:55:21.524Z,56.30
2017-04-16T06:56:18.948Z,57.40
2017-04-16T06:57:16.388Z,56.80
2017-04-16T06:58:14.195Z,56.00
2017-04-16T06:59:11.628Z,55.40
2017-04-16T07:00:09.169Z,55.30
2017-04-16T07:01:06.905Z,56.60
2017-04-16T07:02:04.348Z,57.20
2017-04-16T07:03:01.784Z,58.00
2017-04-16T07:03:59.702Z,56.50
2017-04-16T07:04:57.479Z,55.50
2017-04-16T07:05:54.896Z,56.20
2017-04-16T07:06:53.044Z,55.60
2017-04-16T07:07:50.443Z,55.90
2017-04-16T07:08:47.898Z,54.60
2017-04-16T07:09:45.296Z,54.10
2017-04-16T07:10:42.696Z,54.90
2017-04-16T07:11:40.106Z,54.50
2017-04-16T07:12:37.521Z,53.00
2017-04-16T07:13:35.006Z,51.30
2017-04-16T07:14:32.484Z,51.30
2017-04-16T07:15:29.882Z,51.70
2017-04-16T07:16:28.057Z,53.30
2017-04-16T07:17:25.457Z,52.90
2017-04-16T07:18:23.129Z,53.30
2017-04-16T07:19:20.572Z,51.80
2017-04-16T07:20:18.001Z,50.70
2017-04-16T07:21:16.190Z,49.40
2017-04-16T07:22:13.632Z,48.80
2017-04-16T07:23:11.231Z,47.90
2017-04-16T07:24:08.687Z,46.70
2017-04-16T07:25:06.165Z,47.40
2017-04-16T07:26:03.953Z,49.90
2017-04-16T07:27:01.361Z,49.10
2017-04-16T07:27:58.796Z,48.40
2017-04-16T07:28:56.209Z,46.60
2017-04-16T07:29:53.613Z,47.20
2017-04-16T07:30:51.018Z,48.50
2017-04-16T07:31:48.675Z,49.20
2017-04-16T07:32:47.475Z,48.40
2017-04-16T07:33:44.897Z,48.80
2017-04-16T07:34:42.322Z,46.90
2017-04-16T07:35:39.735Z,45.70
2017-04-16T07:36:37.171Z,46.30
2017-04-16T07:37:34.622Z,48.90
2017-04-16T07:38:32.030Z,52.10
2017-04-16T07:39:29.453Z,53.40
2017-04-16T07:40:26.863Z,54.70
2017-04-16T07:41:24.307Z,54.30
2017-04-16T07:42:21.748Z,53.30
2017-04-16T07:43:19.180Z,52.60
2017-04-16T07:44:16.593Z,51.20
2017-04-16T07:45:14.043Z,49.10
2017-04-16T07:46:11.496Z,48.20
2017-04-16T07:47:08.920Z,45.90
2017-04-16T07:48:06.404Z,44.60
2017-04-16T07:49:04.597Z,43.70
2017-04-16T07:50:02.002Z,44.50
2017-04-16T07:50:59.448Z,45.00
2017-04-16T07:51:56.958Z,45.30
2017-04-16T07:52:54.371Z,45.80
2017-04-16T07:53:51.845Z,47.10
2017-04-16T07:54:49.476Z,46.00
2017-04-16T07:55:46.908Z,45.70
2017-04-16T07:56:44.613Z,46.10
2017-04-16T07:57:42.037Z,48.40
2017-04-16T07:58:39.433Z,50.90
2017-04-16T07:59:37.168Z,52.50
2017-04-16T08:00:34.629Z,54.30
2017-04-16T08:01:32.036Z,52.90
2017-04-16T08:02:29.979Z,53.00
2017-04-16T08:03:27.411Z,51.10
2017-04-16T08:05:16.863Z,46.40
2017-04-16T08:06:15.161Z,43.80
2017-04-16T08:07:13.477Z,43.00
2017-04-16T08:08:11.697Z,42.90
2017-04-16T08:09:09.927Z,42.20
2017-04-16T08:10:08.145Z,40.60
2017-04-16T08:11:06.373Z,40.90
2017-04-16T08:12:04.645Z,41.00
2017-04-16T08:13:02.865Z,41.00
2017-04-16T08:14:01.334Z,42.40
2017-04-16T08:14:59.939Z,45.20
2017-04-16T08:15:58.161Z,45.90
2017-04-16T08:16:56.414Z,47.40
2017-04-16T08:17:54.667Z,49.80
2017-04-16T08:18:53.642Z,49.40
2017-04-16T08:19:51.844Z,48.40
2017-04-16T08:20:50.825Z,49.70
2017-04-16T08:21:49.085Z,49.90
2017-04-16T08:22:47.996Z,50.10
2017-04-16T08:23:46.245Z,51.20
2017-04-16T08:24:45.204Z,49.20
2017-04-16T08:25:43.440Z,49.60
2017-04-16T08:26:41.887Z,48.70
2017-04-16T08:27:40.117Z,49.10
2017-04-16T08:28:38.402Z,50.90
2017-04-16T08:29:36.636Z,50.90
2017-04-16T08:30:34.856Z,50.80
2017-04-16T08:31:33.078Z,51.60
2017-04-16T08:32:31.366Z,51.60
2017-04-16T08:33:29.581Z,51.60
2017-04-16T08:34:27.789Z,49.50
2017-04-16T08:35:26.802Z,47.40
2017-04-16T08:36:25.042Z,46.30
2017-04-16T08:37:24.297Z,44.10
2017-04-16T08:38:22.512Z,43.60
2017-04-16T08:39:20.729Z,46.20
2017-04-16T08:40:18.946Z,45.80
2017-04-16T08:41:17.297Z,45.70
2017-04-16T08:42:15.512Z,44.30
2017-04-16T08:43:14.762Z,43.90
2017-04-16T08:44:13.289Z,42.60
2017-04-16T08:45:11.495Z,41.30
2017-04-16T08:46:09.728Z,41.30
2017-04-16T08:47:08.252Z,41.60
2017-04-16T08:48:06.462Z,40.80
2017-04-16T08:49:04.685Z,40.30
2017-04-16T08:50:03.077Z,40.40
2017-04-16T08:51:01.476Z,40.80
2017-04-16T08:51:59.860Z,41.00
2017-04-16T08:52:58.847Z,41.80
2017-04-16T08:53:57.075Z,42.00
2017-04-16T08:54:55.552Z,42.30
2017-04-16T08:55:53.773Z,42.50
2017-04-16T08:56:51.983Z,44.30
2017-04-16T08:57:50.184Z,45.80
2017-04-16T08:58:48.416Z,47.00
2017-04-16T08:59:46.634Z,47.30
2017-04-16T09:00:44.852Z,47.30
2017-04-16T09:01:43.056Z,45.70
2017-04-16T09:02:41.273Z,44.70
2017-04-16T09:03:39.544Z,42.60
2017-04-16T09:04:37.792Z,42.30
2017-04-16T09:05:35.996Z,42.20
2017-04-16T09:06:34.213Z,42.20
2017-04-16T09:07:32.432Z,43.60
2017-04-16T09:08:31.380Z,42.90
2017-04-16T09:09:29.593Z,41.50
2017-04-16T09:10:27.846Z,41.30
2017-04-16T09:11:26.808Z,39.10
2017-04-16T09:12:25.019Z,40.30
2017-04-16T09:13:23.248Z,40.20
2017-04-16T09:14:21.456Z,39.80
2017-04-16T09:15:19.964Z,38.50
2017-04-16T09:16:19.133Z,37.10
2017-04-16T09:17:17.661Z,36.60
2017-04-16T09:18:15.890Z,35.90
2017-04-16T09:19:14.118Z,35.40
2017-04-16T09:20:12.338Z,35.80
2017-04-16T09:21:10.552Z,36.00
2017-04-16T09:22:08.799Z,36.70
2017-04-16T09:23:07.061Z,36.80
2017-04-16T09:24:05.363Z,37.70
2017-04-16T09:25:03.602Z,39.10
2017-04-16T09:26:01.820Z,39.40
2017-04-16T09:27:00.036Z,39.50
2017-04-16T09:27:58.284Z,40.00
2017-04-16T09:28:57.296Z,40.10
2017-04-16T09:29:55.516Z,40.10
2017-04-16T09:30:53.759Z,39.00
2017-04-16T09:31:52.717Z,38.10
2017-04-16T09:32:50.929Z,38.10
2017-04-16T09:33:49.178Z,38.40
2017-04-16T09:34:47.396Z,39.30
2017-04-16T09:35:45.615Z,39.60
2017-04-16T09:36:43.887Z,37.80
2017-04-16T09:37:42.112Z,36.80
2017-04-16T09:38:40.753Z,35.40
2017-04-16T09:39:38.223Z,35.40
2017-04-16T09:40:36.438Z,34.00
2017-04-16T09:41:34.645Z,34.00
2017-04-16T09:42:32.852Z,34.40
2017-04-16T09:43:31.119Z,36.20
2017-04-16T09:44:29.331Z,36.80
2017-04-16T09:45:27.576Z,37.30
2017-04-16T09:46:25.798Z,38.30
2017-04-16T09:47:24.017Z,39.10
2017-04-16T09:48:23.048Z,39.00
2017-04-16T09:49:21.301Z,38.30
2017-04-16T09:50:19.522Z,39.00
2017-04-16T09:51:17.773Z,40.20
2017-04-16T09:52:15.993Z,40.40
2017-04-16T09:53:14.208Z,40.70
2017-04-16T09:54:12.413Z,40.20
2017-04-16T09:55:10.639Z,39.70
2017-04-16T09:56:09.629Z,38.10
2017-04-16T09:57:07.885Z,36.60
2017-04-16T09:58:06.097Z,36.40
2017-04-16T09:59:04.336Z,36.20
2017-04-16T10:00:02.814Z,34.80
2017-04-16T10:01:01.812Z,34.50
2017-04-16T10:02:00.096Z,34.40
2017-04-16T10:02:58.386Z,33.90
2017-04-16T10:03:56.609Z,34.00
2017-04-16T10:04:54.866Z,32.40
2017-04-16T10:05:53.109Z,31.30
2017-04-16T10:06:51.365Z,31.50
2017-04-16T10:07:50.382Z,32.10
2017-04-16T10:08:48.594Z,33.40
2017-04-16T10:09:46.816Z,33.80
2017-04-16T10:10:45.153Z,35.10
2017-04-16T10:11:43.368Z,36.00
2017-04-16T10:12:41.580Z,36.40
2017-04-16T10:13:39.992Z,37.10
2017-04-16T10:14:38.218Z,38.00
2017-04-16T10:15:36.423Z,38.40
2017-04-16T10:16:35.632Z,38.70
2017-04-16T10:17:33.865Z,38.00
2017-04-16T10:18:32.096Z,37.80
2017-04-16T10:19:30.344Z,36.20
2017-04-16T10:20:28.625Z,34.10
2017-04-16T10:21:26.824Z,33.70
2017-04-16T10:22:25.052Z,33.90
2017-04-16T10:23:23.335Z,33.50
2017-04-16T10:24:21.565Z,34.90
2017-04-16T10:25:19.814Z,34.30
2017-04-16T10:26:18.448Z,35.40
2017-04-16T10:27:16.662Z,35.50
2017-04-16T10:28:15.405Z,35.90
2017-04-16T10:29:14.716Z,36.70
2017-04-16T10:30:12.933Z,36.80
2017-04-16T10:31:11.164Z,37.60
2017-04-16T10:32:09.426Z,38.40
2017-04-16T10:33:07.645Z,38.60
2017-04-16T10:34:05.862Z,39.30
2017-04-16T10:35:04.089Z,38.70
2017-04-16T10:36:03.432Z,37.10
2017-04-16T10:37:01.668Z,36.90
2017-04-16T10:37:59.896Z,35.80
2017-04-16T10:38:58.101Z,34.40
2017-04-16T10:39:56.744Z,33.80
2017-04-16T10:40:54.976Z,33.80
2017-04-16T10:41:54.065Z,33.50
2017-04-16T10:42:52.381Z,33.00
2017-04-16T10:43:50.600Z,32.80
2017-04-16T10:44:48.874Z,31.50
2017-04-16T10:45:47.090Z,32.40
2017-04-16T10:46:45.304Z,32.50
2017-04-16T10:47:43.537Z,32.30
2017-04-16T10:48:41.792Z,33.10
2017-04-16T10:49:40.016Z,33.50
2017-04-16T10:50:38.230Z,34.30
2017-04-16T10:51:36.827Z,34.80
2017-04-16T10:52:35.053Z,34.20
2017-04-16T10:53:33.737Z,34.40
2017-04-16T10:54:32.239Z,34.00
2017-04-16T10:55:30.452Z,32.90
2017-04-16T10:56:28.664Z,32.90
2017-04-16T10:57:26.940Z,33.00
2017-04-16T10:58:25.167Z,32.90
2017-04-16T10:59:23.388Z,33.20
2017-04-16T11:00:21.637Z,34.20
2017-04-16T11:01:20.102Z,33.70
2017-04-16T11:02:21.430Z,34.30
2017-04-16T11:03:21.550Z,34.60
2017-04-16T11:04:19.762Z,34.90
2017-04-16T11:05:18.717Z,34.30
2017-04-16T11:06:17.205Z,35.20
2017-04-16T11:07:15.516Z,35.90
2017-04-16T11:08:13.727Z,35.90
2017-04-16T11:09:12.158Z,35.20
2017-04-16T11:10:10.365Z,34.70
2017-04-16T11:11:08.580Z,34.90
2017-04-16T11:12:06.813Z,33.20
2017-04-16T11:13:05.779Z,34.10
2017-04-16T11:14:03.987Z,34.80
2017-04-16T11:15:02.315Z,34.50
2017-04-16T11:16:00.557Z,35.80
2017-04-16T11:16:58.783Z,37.10
2017-04-16T11:17:57.362Z,37.90
2017-04-16T11:18:55.625Z,41.30
2017-04-16T11:19:53.873Z,43.30
2017-04-16T11:20:52.831Z,42.50
2017-04-16T11:21:51.048Z,43.10
2017-04-16T11:22:49.318Z,43.80
2017-04-16T11:23:47.547Z,43.20
2017-04-16T11:24:45.778Z,44.80
2017-04-16T11:25:44.012Z,44.20
2017-04-16T11:26:42.237Z,45.00
2017-04-16T11:27:40.519Z,44.70
2017-04-16T11:28:38.768Z,44.70
2017-04-16T11:29:37.047Z,46.40
2017-04-16T11:30:36.017Z,48.10
2017-04-16T11:31:34.245Z,50.30
2017-04-16T11:32:32.461Z,50.30
2017-04-16T11:33:31.428Z,52.00
2017-04-16T11:34:29.708Z,51.20
2017-04-16T11:35:27.916Z,52.70
2017-04-16T11:36:26.153Z,55.10
2017-04-16T11:37:24.370Z,57.40
2017-04-16T11:38:22.601Z,60.50
2017-04-16T11:39:21.521Z,64.10
2017-04-16T11:40:20.111Z,64.20
2017-04-16T11:41:18.422Z,61.80
2017-04-16T11:42:16.666Z,65.70
2017-04-16T11:43:15.650Z,64.30
2017-04-16T11:44:14.612Z,67.20
2017-04-16T11:45:12.944Z,67.70
2017-04-16T11:46:11.339Z,67.60
2017-04-16T11:47:09.562Z,68.70
2017-04-16T11:48:07.772Z,68.40
2017-04-16T11:49:05.989Z,68.50
2017-04-16T11:50:04.202Z,67.40
2017-04-16T11:51:02.421Z,67.30
2017-04-16T11:52:00.652Z,69.60
2017-04-16T11:52:59.656Z,70.80
2017-04-16T11:53:57.924Z,68.90
2017-04-16T11:54:56.155Z,68.60
2017-04-16T11:55:54.525Z,67.00
2017-04-16T11:56:52.759Z,69.80
2017-04-16T11:57:51.000Z,66.90
2017-04-16T11:58:49.236Z,65.60
2017-04-16T11:59:47.451Z,67.50
2017-04-16T12:00:45.679Z,63.40
2017-04-16T12:01:43.899Z,62.70
2017-04-16T12:02:42.109Z,63.00
2017-04-16T12:03:41.089Z,61.20
2017-04-16T12:04:39.301Z,61.50
2017-04-16T12:05:37.611Z,61.90
2017-04-16T12:06:35.837Z,60.30
2017-04-16T12:07:34.048Z,58.60
2017-04-16T12:08:33.002Z,59.40
2017-04-16T12:09:31.243Z,58.80
2017-04-16T12:10:29.456Z,58.10
2017-04-16T12:11:27.672Z,56.10
2017-04-16T12:12:25.993Z,55.60
2017-04-16T12:13:24.965Z,56.10
2017-04-16T12:14:23.197Z,56.20
2017-04-16T12:15:21.444Z,56.40
2017-04-16T12:16:19.668Z,53.30
2017-04-16T12:17:18.626Z,51.30
2017-04-16T12:18:16.854Z,52.50
2017-04-16T12:19:15.780Z,54.40
2017-04-16T12:20:13.992Z,50.10
2017-04-16T12:21:12.237Z,49.50
2017-04-16T12:22:10.454Z,48.30
2017-04-16T12:23:08.673Z,45.90
2017-04-16T12:24:06.894Z,45.50
2017-04-16T12:25:05.112Z,45.00
2017-04-16T12:26:03.324Z,40.80